Latest Weather Observations for Geraldton Airport

IDW60801

Issued at 2:35 pm WST Thursday 17 April 2014 (issued every 30 minutes, with the page automatically refreshed every 10 minutes)

About weather observations | Map of weather stations | Latest weather observations for WA | Other Formats
Station Details ID: 008315 Name: GERALDTON AIRPORT Lat: -28.80 Lon: 114.70 Height: 29.7 m
Data from the previous 72 hours. | See also: Recent months at Geraldton Airport
Date/Time
WST
Temp
°C
App
Temp
°C
Dew
Point
Rel
Hum
%
Delta-T
°C
Wind Press
QNH
hPa
Press
MSL
hPa
Rain
since 9 am
mm
Dir
 
Spd
km/h
Gust
km/h
Spd
kts
Gust
kts
17/02:30pm 25.6 20.9 14.3 49 6.7 S 32 39 17 21 1017.9 - 0.0
17/02:00pm 25.5 21.1 14.0 49 6.8 S 30 43 16 23 1017.9 - 0.0
17/01:30pm 25.3 20.7 13.6 48 6.9 S 30 39 16 21 1018.2 - 0.0
17/01:00pm 24.7 20.2 13.7 50 6.5 S 30 37 16 20 1018.5 - 0.0
17/12:30pm 25.6 21.2 13.0 45 7.3 S 28 37 15 20 1019.1 - 0.0
17/12:00pm 25.2 21.6 12.9 46 7.1 S 24 33 13 18 1019.6 1019.6 0.0
17/11:30am 24.4 21.4 12.4 47 6.9 S 20 32 11 17 1019.9 - 0.0
17/11:00am 24.3 19.4 11.3 44 7.3 SSE 28 37 15 20 1020.3 - 0.0
17/10:30am 23.1 18.3 11.5 48 6.5 SSE 28 37 15 20 1020.5 - 0.0
17/10:00am 21.9 16.7 11.7 52 5.7 SSE 30 37 16 20 1020.8 - 0.0
17/09:30am 20.8 15.8 12.1 57 4.9 SE 30 39 16 21 1021.0 - 0.0
17/09:00am 19.1 14.1 12.3 64 3.8 SE 30 37 16 20 1021.1 1021.1 0.0
17/08:30am 17.9 14.6 12.9 72 2.8 SE 22 30 12 16 1020.9 - 0.0
17/08:00am 15.8 13.1 13.0 83 1.6 SE 19 26 10 14 1020.8 - 0.0
17/07:30am 14.1 12.1 12.7 91 0.8 SSE 15 17 8 9 1020.5 - 0.0
17/07:00am 13.3 11.5 12.1 92 0.6 SSE 13 17 7 9 1020.2 - 0.0
17/06:30am 13.3 11.5 12.2 93 0.6 SE 13 15 7 8 1020.2 - 0.0
17/06:00am 14.0 12.0 12.7 92 0.7 SE 15 19 8 10 1020.0 1020.0 0.0
17/05:30am 14.2 11.8 12.8 91 0.8 SE 17 20 9 11 1019.8 - 0.0
17/05:00am 14.2 12.3 13.0 92 0.7 SE 15 19 8 10 1019.7 - 0.0
17/04:30am 14.1 12.2 13.0 93 0.6 SSE 15 17 8 9 1019.5 - 0.0
17/04:00am 13.9 12.6 12.6 92 0.7 SE 11 13 6 7 1019.3 - 0.0
17/03:30am 14.3 13.2 13.0 92 0.7 SE 11 13 6 7 1019.1 - 0.0
17/03:00am 14.5 13.4 13.1 91 0.8 SE 11 15 6 8 1019.2 1019.2 0.0
17/02:30am 15.0 13.2 13.4 90 0.9 SE 15 19 8 10 1019.2 - 0.0
17/02:00am 15.9 13.4 13.6 86 1.3 SE 19 26 10 14 1019.1 - 0.0
17/01:30am 16.0 13.9 13.7 86 1.3 SE 17 22 9 12 1019.0 - 0.0
17/01:00am 16.6 15.0 13.8 83 1.6 SE 15 20 8 11 1019.1 - 0.0
17/12:30am 17.1 15.1 14.0 82 1.8 SE 17 20 9 11 1019.0 - 0.0
17/12:00am 17.2 15.2 14.0 81 1.8 SE 17 20 9 11 1019.0 1019.0 0.0
 
Date/Time
WST
Temp
°C
App
Temp
°C
Dew
Point
Rel
Hum
%
Delta-T
°C
Wind Press
QNH
hPa
Press
MSL
hPa
Rain
since 9 am
mm
Dir
 
Spd
km/h
Gust
km/h
Spd
kts
Gust
kts
16/11:30pm 17.6 16.7 14.8 84 1.6 SE 13 17 7 9 1019.1 - 0.0
16/11:00pm 17.9 16.8 15.2 84 1.6 SE 15 17 8 9 1019.3 - 0.0
16/10:30pm 19.3 17.8 16.4 83 1.7 SSE 19 24 10 13 1019.3 - 0.0
16/10:00pm 19.8 18.4 16.9 83 1.8 SSE 20 26 11 14 1019.1 - 0.0
16/09:30pm 20.2 17.9 16.7 80 2.1 SSE 24 32 13 17 1019.1 - 0.0
16/09:00pm 20.4 18.5 16.6 79 2.3 S 22 28 12 15 1019.1 1019.1 0.0
16/08:30pm 20.5 18.5 16.5 78 2.4 S 22 30 12 16 1019.0 - 0.0
16/08:00pm 20.6 18.4 16.8 79 2.3 S 24 32 13 17 1018.9 - 0.0
16/07:30pm 21.0 19.2 16.9 77 2.5 S 22 30 12 16 1018.9 - 0.0
16/07:00pm 21.2 19.3 16.8 76 2.7 S 22 28 12 15 1018.7 - 0.0
16/06:30pm 21.6 19.0 16.9 74 2.9 S 26 33 14 18 1018.4 - 0.0
16/06:00pm 22.2 19.4 16.4 69 3.5 S 26 35 14 19 1018.3 1018.3 0.0
16/05:30pm 23.1 18.7 15.2 61 4.7 S 32 37 17 20 1018.1 - 0.0
16/05:00pm 24.1 20.0 14.9 56 5.5 S 30 37 16 20 1018.0 - 0.0
16/04:30pm 24.1 20.2 15.5 58 5.2 S 30 37 16 20 1018.0 - 0.0
16/04:00pm 24.8 20.7 15.9 57 5.4 S 32 39 17 21 1017.9 - 0.0
16/03:30pm 24.9 21.2 15.9 57 5.5 S 30 39 16 21 1017.8 - 0.0
16/03:00pm 25.1 21.2 15.5 55 5.8 S 30 35 16 19 1017.9 1017.9 0.0
16/02:30pm 25.5 21.8 15.1 52 6.3 S 28 35 15 19 1017.8 - 0.0
16/02:00pm 26.5 23.1 14.7 48 7.1 S 26 35 14 19 1017.9 - 0.0
16/01:30pm 26.3 23.1 14.2 47 7.2 S 24 32 13 17 1018.1 - 0.0
16/01:00pm 25.5 22.3 14.2 49 6.7 S 24 32 13 17 1018.5 - 0.0
16/12:30pm 26.3 23.3 13.8 46 7.4 S 22 30 12 16 1018.9 - 0.0
16/12:00pm 26.2 23.5 13.6 45 7.4 S 20 26 11 14 1019.4 1019.4 0.0
16/11:30am 26.2 24.4 12.2 41 8.1 SSE 13 20 7 11 1020.1 - 0.0
16/11:00am 24.8 23.1 12.5 46 7.1 SE 13 19 7 10 1020.6 - 0.0
16/10:30am 23.3 22.1 12.8 51 6.0 SE 11 19 6 10 1021.0 - 0.0
16/10:00am 22.5 20.9 12.9 54 5.5 SE 13 20 7 11 1021.3 - 0.0
16/09:30am 20.7 18.8 13.0 61 4.4 SE 15 24 8 13 1021.5 - 0.0
16/09:00am 19.6 17.4 13.3 67 3.6 SE 17 20 9 11 1021.8 1021.8 0.0
16/08:30am 18.5 16.7 13.4 72 2.9 SSE 15 19 8 10 1021.9 - 0.0
16/08:00am 16.4 15.7 13.2 81 1.8 SSE 9 11 5 6 1021.8 - 0.0
16/07:30am 14.4 13.5 12.6 89 1.0 ESE 9 11 5 6 1021.7 - 0.0
16/07:00am 12.9 11.0 11.8 93 0.6 SSE 13 15 7 8 1021.4 - 0.0
16/06:30am 12.8 11.2 11.5 92 0.7 SSE 11 13 6 7 1021.2 - 0.0
16/06:00am 13.1 11.9 11.6 91 0.8 SE 9 11 5 6 1021.1 1021.1 0.0
16/05:30am 13.5 12.4 12.0 91 0.8 SSE 9 11 5 6 1021.1 - 0.0
16/05:00am 14.2 13.6 12.4 89 1.0 SE 7 9 4 5 1021.0 - 0.0
16/04:30am 14.9 14.0 12.6 86 1.3 SE 9 11 5 6 1020.9 - 0.0
16/04:00am 15.8 14.2 12.9 83 1.6 SE 13 15 7 8 1020.8 - 0.0
16/03:30am 16.3 14.5 13.3 82 1.7 ESE 15 17 8 9 1020.8 - 0.0
16/03:00am 15.9 13.7 13.2 84 1.5 ESE 17 22 9 12 1020.6 1020.6 0.0
16/02:30am 15.7 13.5 13.2 85 1.4 SE 17 19 9 10 1020.6 - 0.0
16/02:00am 16.1 13.6 13.4 84 1.5 SSE 19 22 10 12 1020.5 - 0.0
16/01:30am 16.1 14.3 13.3 83 1.6 SSE 15 17 8 9 1020.9 - 0.0
16/01:00am 16.8 15.1 13.6 81 1.8 SSE 15 20 8 11 1021.0 - 0.0
16/12:30am 17.6 14.9 13.5 77 2.3 SSE 20 24 11 13 1021.0 - 0.0
16/12:00am 18.2 14.8 13.6 74 2.6 SE 24 30 13 16 1021.1 1021.1 0.0
 
Date/Time
WST
Temp
°C
App
Temp
°C
Dew
Point
Rel
Hum
%
Delta-T
°C
Wind Press
QNH
hPa
Press
MSL
hPa
Rain
since 9 am
mm
Dir
 
Spd
km/h
Gust
km/h
Spd
kts
Gust
kts
15/11:30pm 18.6 15.2 13.6 72 2.8 SSE 24 32 13 17 1021.2 - 0.0
15/11:00pm 18.7 15.8 14.0 74 2.7 SSE 22 28 12 15 1021.3 - 0.0
15/10:30pm 19.3 16.6 14.7 74 2.7 SE 22 28 12 15 1021.5 - 0.0
15/10:00pm 20.2 17.5 16.6 80 2.2 SSE 26 32 14 17 1021.5 - 0.0
15/09:30pm 20.6 17.9 16.7 78 2.4 S 26 35 14 19 1021.6 - 0.0
15/09:00pm 20.9 18.0 17.0 78 2.4 S 28 35 15 19 1021.5 1021.5 0.0
15/08:30pm 20.9 18.0 17.1 79 2.3 S 28 32 15 17 1021.5 - 0.0
15/08:00pm 21.2 18.4 17.3 78 2.4 S 28 37 15 20 1021.3 - 0.0
15/07:30pm 21.3 19.2 17.2 77 2.5 S 24 32 13 17 1021.2 - 0.0
15/07:00pm 21.4 19.5 17.7 79 2.3 S 24 32 13 17 1020.9 - 0.0
15/06:30pm 21.9 19.3 17.7 77 2.6 S 28 35 15 19 1020.7 - 0.0
15/06:00pm 22.3 19.6 17.5 74 3.0 S 28 35 15 19 1020.3 1020.3 0.0
15/05:30pm 23.1 19.6 17.5 70 3.5 S 32 41 17 22 1020.2 - 0.0
15/05:00pm 23.8 20.2 17.7 68 3.8 S 33 41 18 22 1020.2 - 0.0
15/04:30pm 24.7 21.2 17.9 66 4.3 S 33 43 18 23 1020.2 - 0.0
15/04:00pm 25.4 22.2 18.1 64 4.6 S 32 41 17 22 1020.0 - 0.0
15/03:30pm 25.1 21.5 17.6 63 4.7 S 33 41 18 22 1019.8 - 0.0
15/03:00pm 26.3 23.5 17.2 57 5.7 S 28 35 15 19 1019.8 1019.8 0.0
15/02:30pm 25.9 22.9 16.9 57 5.6 S 28 35 15 19 1019.8 - 0.0
15/02:00pm 26.4 23.5 17.1 56 5.8 S 28 35 15 19 1019.9 - 0.0
15/01:30pm 27.2 24.7 17.2 54 6.3 S 26 37 14 20 1020.0 - 0.0
15/01:00pm 27.3 25.2 17.1 53 6.4 S 24 33 13 18 1020.1 - 0.0
15/12:30pm 26.0 23.4 17.9 61 5.1 S 28 37 15 20 1020.2 - 0.0
15/12:00pm 26.9 23.8 17.4 56 5.9 SSW 30 43 16 23 1020.2 1020.2 0.0
15/11:58am 27.6 24.8 17.2 53 6.5 SSW 28 37 15 20 1020.3 - 0.0
15/11:30am 28.2 27.0 13.9 41 8.5 S 13 19 7 10 1020.3 - 0.0
15/11:00am 27.9 26.5 15.5 46 7.6 SSE 17 24 9 13 1020.5 - 0.0
15/10:30am 27.0 25.5 14.2 45 7.6 SSE 15 24 8 13 1020.9 - 0.0
15/10:00am 25.2 24.3 14.8 52 6.2 SE 13 19 7 10 1020.9 - 0.0
15/09:30am 23.9 22.8 16.3 62 4.6 SE 17 22 9 12 1021.0 - 0.0
15/09:00am 22.5 21.0 16.4 68 3.7 SSE 19 24 10 13 1021.2 1021.2 0.0
15/08:30am 20.2 19.9 16.5 79 2.2 SSE 13 17 7 9 1021.2 - 0.0
15/08:00am 17.8 18.5 16.0 89 1.1 E 7 11 4 6 1021.1 - 0.0
15/07:30am 16.1 16.7 15.4 96 0.4 ESE 6 7 3 4 1020.6 - 0.0
15/07:17am 15.1 16.2 14.6 97 0.3 ESE 2 7 1 4 1020.3 - 0.0
15/07:00am 14.2 14.1 13.8 97 0.2 ENE 7 7 4 4 1020.0 - 0.0
15/06:55am 14.1 14.1 13.6 97 0.3 E 6 7 3 4 1020.0 - 0.0
15/06:43am 13.9 13.6 13.4 97 0.3 E 7 9 4 5 1019.8 - 0.0
15/06:30am 13.9 13.3 13.4 97 0.3 E 9 9 5 5 1019.7 - 0.0
15/06:22am 14.0 13.3 13.3 96 0.4 ENE 9 13 5 7 1019.7 - 0.0
15/06:00am 14.4 14.2 13.5 94 0.5 NE 7 9 4 5 1019.7 1019.7 0.0
15/05:52am 14.4 13.9 13.7 96 0.4 NE 9 11 5 6 1019.7 - 0.0
15/05:30am 14.9 14.9 14.2 96 0.4 ENE 7 7 4 4 1019.6 - 0.0
15/05:00am 15.1 16.1 14.4 96 0.4 N 2 7 1 4 1019.4 - 0.0
15/04:55am 15.0 15.3 14.5 97 0.3 N 6 11 3 6 1019.5 - 0.0
15/04:50am 15.0 15.0 14.3 96 0.4 NNE 7 11 4 6 1019.5 - 0.0
15/04:30am 15.5 16.9 15.3 99 0.1 N 2 9 1 5 1019.4 - 0.0
15/04:27am 15.8 17.3 15.7 99 0.1 NNW 2 6 1 3 1019.4 - 0.0
15/04:00am 16.0 17.8 15.6 97 0.2 CALM 0 6 0 3 1019.2 - 0.0
15/03:30am 15.7 17.5 15.4 98 0.2 CALM 0 0 0 0 1019.2 - 0.0
15/03:00am 15.4 16.0 15.2 99 0.1 ESE 6 9 3 5 1019.0 1019.0 0.0
15/02:30am 16.5 18.6 16.2 98 0.2 CALM 0 0 0 0 1019.2 - 0.0
15/02:00am 16.1 16.9 15.8 98 0.2 SSE 6 7 3 4 1019.4 - 0.0
15/01:30am 18.0 19.5 17.7 98 0.2 SSE 6 9 3 5 1019.5 - 0.0
15/01:27am 18.1 19.7 17.9 99 0.1 SE 6 9 3 5 1019.5 - 0.0
15/01:00am 19.3 21.8 19.0 98 0.2 SE 4 9 2 5 1019.6 - 0.0
15/12:39am 18.1 20.4 17.8 98 0.2 SE 2 7 1 4 1019.6 - 0.0
15/12:30am 16.5 17.8 16.1 97 0.2 SE 4 11 2 6 1019.6 - 0.0
15/12:00am 18.8 20.4 18.3 97 0.3 SE 7 9 4 5 1019.6 1019.6 0.0
 
Date/Time
WST
Temp
°C
App
Temp
°C
Dew
Point
Rel
Hum
%
Delta-T
°C
Wind Press
QNH
hPa
Press
MSL
hPa
Rain
since 9 am
mm
Dir
 
Spd
km/h
Gust
km/h
Spd
kts
Gust
kts
14/11:30pm 18.0 19.4 17.4 96 0.4 ESE 6 9 3 5 1019.7 - 0.0
14/11:00pm 19.1 20.9 18.7 98 0.2 E 7 9 4 5 1019.7 - 0.0
14/10:30pm 19.2 20.2 18.6 96 0.4 SE 11 13 6 7 1019.7 - 0.0
14/10:00pm 19.6 21.0 18.7 94 0.6 SE 9 11 5 6 1019.7 - 0.0
14/09:30pm 20.6 22.5 19.7 95 0.6 SSE 9 11 5 6 1019.7 - 0.0
14/09:00pm 21.1 22.4 20.1 94 0.6 S 13 15 7 8 1019.5 1019.5 0.0
14/08:30pm 21.3 22.6 20.1 93 0.8 SSE 13 15 7 8 1019.5 - 0.0
14/08:00pm 21.8 23.2 20.3 91 1.0 S 13 17 7 9 1019.3 - 0.0
14/07:30pm 22.3 23.7 20.3 88 1.3 SSE 13 17 7 9 1019.2 - 0.0
14/07:00pm 22.8 23.1 20.3 86 1.6 SSE 19 22 10 12 1019.0 - 0.0
14/06:30pm 23.5 23.4 19.9 80 2.3 S 20 24 11 13 1018.7 - 0.0
14/06:00pm 24.6 23.9 18.7 69 3.7 S 20 26 11 14 1018.5 1018.5 0.0
14/05:30pm 26.0 23.9 17.2 58 5.5 S 24 30 13 16 1018.1 - 0.0
14/05:00pm 26.9 24.4 16.2 52 6.6 S 24 32 13 17 1017.8 - 0.0
14/04:30pm 28.2 24.9 14.0 41 8.5 S 24 32 13 17 1017.6 - 0.0
14/04:00pm 29.1 25.7 12.4 35 9.8 S 22 30 12 16 1017.5 - 0.0
14/03:30pm 30.7 27.2 10.9 29 11.4 S 20 28 11 15 1017.4 - 0.0
14/03:00pm 30.7 26.9 9.9 27 11.8 SSW 20 28 11 15 1017.4 1017.3 0.0

Other Formats:

Comma delimited format used in spreadsheet applications
http://www.bom.gov.au/fwo/IDW60801/IDW60801.94403.axf

JavaScript Object Notation format (JSON) in row-major order
http://www.bom.gov.au/fwo/IDW60801/IDW60801.94403.json